Time;durP1;ratioP1;P1;durP2;ratioP2;P2;SDS_P1;SDS_P2;PMS_P1;PMS_P2;Temp;Humidity;BMP_temperature;BMP_pressure;BME280_temperature;BME280_humidity;BME280_pressure;Samples;Min_cycle;Max_cycle;Signal;HPM_P1;HPM_P2
2022/03/05 00:00:31;;;;;;;1.23;1.13;;;;;;;-0.71;67.56;96463.16;5037472;28;20202;-72
2022/03/05 00:02:59;;;;;;;1.43;0.87;;;;;;;-0.65;67.88;96467.91;5038166;28;20375;-72
2022/03/05 00:05:26;;;;;;;5.10;1.13;;;;;;;-0.76;68.10;96466.97;5037666;28;20234;-72
2022/03/05 00:07:52;;;;;;;4.67;2.13;;;;;;;-0.71;68.45;96464.91;5037061;28;20212;-72
2022/03/05 00:10:21;;;;;;;1.33;1.23;;;;;;;-0.92;69.21;96463.78;5037628;28;20709;-72
2022/03/05 00:12:47;;;;;;;2.00;1.57;;;;;;;-0.84;69.40;96467.50;5036945;28;20249;-73
2022/03/05 00:15:14;;;;;;;1.43;1.33;;;;;;;-0.76;69.31;96465.22;5037106;28;20209;-72
2022/03/05 00:17:41;;;;;;;1.10;1.10;;;;;;;-0.81;69.70;96462.13;5037340;28;20228;-72
2022/03/05 00:20:10;;;;;;;1.90;1.80;;;;;;;-0.54;70.67;96465.41;5037443;28;20205;-72
2022/03/05 00:22:36;;;;;;;2.57;2.37;;;;;;;-0.70;69.60;96467.41;5036229;28;20229;-72
2022/03/05 00:25:04;;;;;;;1.50;1.23;;;;;;;-0.81;70.41;96464.72;5037322;28;20209;-72
2022/03/05 00:27:30;;;;;;;1.47;1.37;;;;;;;-0.77;70.82;96462.75;5037301;28;20201;-72
2022/03/05 00:29:57;;;;;;;1.30;1.20;;;;;;;-0.61;69.72;96464.19;5036969;28;20265;-72
2022/03/05 00:32:23;;;;;;;2.80;1.67;;;;;;;-0.70;69.90;96472.59;5036189;28;21145;-72
2022/03/05 00:34:50;;;;;;;0.50;0.50;;;;;;;-0.68;70.87;96468.13;5036978;28;20784;-72
2022/03/05 00:37:18;;;;;;;4.37;2.47;;;;;;;-0.51;71.47;96470.38;5036777;28;20208;-72
2022/03/05 00:39:45;;;;;;;5.50;2.77;;;;;;;-0.85;72.05;96465.00;5036823;28;20216;-72
2022/03/05 00:42:11;;;;;;;3.87;1.90;;;;;;;-0.67;73.20;96468.97;5036555;28;20278;-72
2022/03/05 00:44:38;;;;;;;1.60;1.47;;;;;;;-0.65;72.63;96462.72;5036613;28;20751;-72
2022/03/05 00:47:04;;;;;;;4.00;1.53;;;;;;;-0.56;72.10;96465.53;5036803;28;20245;-72
2022/03/05 00:49:31;;;;;;;2.97;2.33;;;;;;;-0.55;72.11;96469.78;5037179;28;20216;-72
2022/03/05 00:51:57;;;;;;;2.63;2.00;;;;;;;-0.53;71.46;96467.09;5036674;28;20248;-72
2022/03/05 00:54:25;;;;;;;1.87;1.33;;;;;;;-0.39;71.42;96461.78;5035633;28;20236;-72
2022/03/05 00:56:52;;;;;;;1.77;1.67;;;;;;;-0.49;71.75;96468.53;5036976;28;20201;-73
2022/03/05 00:59:18;;;;;;;0.83;0.83;;;;;;;-0.53;72.01;96470.47;5036389;28;20209;-72
2022/03/05 01:01:45;;;;;;;2.80;2.60;;;;;;;-0.56;71.91;96469.84;5036081;28;20264;-72
2022/03/05 01:04:11;;;;;;;1.57;1.20;;;;;;;-0.54;71.59;96466.22;5036338;28;20208;-72
2022/03/05 01:06:38;;;;;;;4.80;2.27;;;;;;;-0.66;72.44;96466.25;5035747;28;20682;-72
2022/03/05 01:09:05;;;;;;;2.00;1.47;;;;;;;-0.43;71.59;96468.09;5035998;28;20316;-72
2022/03/05 01:11:33;;;;;;;4.90;1.77;;;;;;;-0.53;71.10;96467.09;5037007;28;20239;-72
2022/03/05 01:14:00;;;;;;;9.73;2.23;;;;;;;-0.88;71.23;96460.03;5036310;28;20201;-72
2022/03/05 01:16:26;;;;;;;6.40;2.00;;;;;;;-0.94;70.94;96460.44;5035938;28;20209;-72
2022/03/05 01:18:52;;;;;;;2.23;1.37;;;;;;;-0.97;70.80;96456.34;5035944;28;20208;-72
2022/03/05 01:21:19;;;;;;;5.90;2.83;;;;;;;-0.93;70.56;96451.75;5036897;28;20208;-72
2022/03/05 01:23:45;;;;;;;1.37;1.30;;;;;;;-1.09;72.25;96454.56;5035675;28;20705;-72
2022/03/05 01:26:12;;;;;;;7.53;2.83;;;;;;;-1.01;71.49;96454.88;5036521;28;20201;-72
2022/03/05 01:28:40;;;;;;;3.30;2.13;;;;;;;-0.88;72.07;96450.53;5036616;28;20700;-72
2022/03/05 01:31:06;;;;;;;4.60;2.13;;;;;;;-1.01;72.04;96443.69;5036740;28;20228;-72
2022/03/05 01:33:33;;;;;;;3.87;1.37;;;;;;;-1.06;72.57;96449.19;5035333;28;20246;-72
2022/03/05 01:35:59;;;;;;;2.37;1.90;;;;;;;-1.10;72.46;96445.13;5036483;28;20209;-72
2022/03/05 01:38:26;;;;;;;2.07;1.90;;;;;;;-1.03;71.50;96443.81;5036069;28;20220;-72
2022/03/05 01:40:52;;;;;;;1.73;1.30;;;;;;;-1.15;71.81;96442.03;5036084;28;20197;-72
2022/03/05 01:43:19;;;;;;;3.70;1.83;;;;;;;-1.23;72.47;96444.31;5035445;28;20220;-72
2022/03/05 01:45:47;;;;;;;1.50;1.40;;;;;;;-1.16;73.13;96440.41;5035798;28;20978;-72
2022/03/05 01:48:14;;;;;;;1.53;1.20;;;;;;;-1.16;73.67;96440.41;5036349;28;20201;-72
2022/03/05 01:50:40;;;;;;;4.80;2.20;;;;;;;-1.13;73.50;96436.78;5036119;28;20279;-72
2022/03/05 01:53:07;;;;;;;3.03;1.47;;;;;;;-1.32;74.13;96443.25;5035571;28;20228;-72
2022/03/05 01:55:34;;;;;;;3.53;1.70;;;;;;;-1.16;73.16;96435.22;5036390;28;20216;-72
2022/03/05 01:58:01;;;;;;;4.90;1.70;;;;;;;-1.24;72.64;96447.00;5036150;28;20205;-72
2022/03/05 02:00:27;;;;;;;9.53;2.47;;;;;;;-1.33;72.85;96444.19;5036029;28;21283;-72
2022/03/05 02:02:55;;;;;;;5.17;2.20;;;;;;;-1.05;73.09;96434.50;5035569;28;20236;-72
2022/03/05 02:05:23;;;;;;;1.57;1.07;;;;;;;-1.16;73.46;96434.38;5035655;28;20197;-72
2022/03/05 02:07:50;;;;;;;4.43;2.23;;;;;;;-1.11;73.34;96430.56;5039913;28;20209;-72
2022/03/05 02:10:17;;;;;;;3.33;1.97;;;;;;;-1.07;73.00;96437.19;5039699;28;21242;-72
2022/03/05 02:12:44;;;;;;;2.03;1.83;;;;;;;-1.17;73.47;96438.72;5039102;28;20228;-72
2022/03/05 02:15:11;;;;;;;0.87;0.87;;;;;;;-1.07;73.10;96438.94;5039159;28;20210;-72
2022/03/05 02:17:38;;;;;;;4.80;2.57;;;;;;;-1.07;72.80;96439.78;5040197;28;20211;-72
2022/03/05 02:20:08;;;;;;;1.57;1.47;;;;;;;-1.13;72.73;96440.19;5039581;28;20205;-72
2022/03/05 02:22:36;;;;;;;2.60;1.50;;;;;;;-1.19;71.53;96439.75;5039159;28;20235;-72
2022/03/05 02:25:03;;;;;;;1.70;1.60;;;;;;;-1.39;69.82;96436.84;5039715;28;20209;-72
2022/03/05 02:27:31;;;;;;;7.00;2.57;;;;;;;-1.46;71.60;96435.59;5039544;28;20205;-72
2022/03/05 02:29:58;;;;;;;1.27;1.17;;;;;;;-1.46;71.10;96443.34;5039122;28;20208;-72
2022/03/05 02:32:25;;;;;;;2.40;2.20;;;;;;;-1.46;69.87;96435.59;5038582;28;20754;-72
2022/03/05 02:34:52;;;;;;;2.10;2.00;;;;;;;-1.50;70.20;96436.69;5039723;28;20205;-72
2022/03/05 02:37:19;;;;;;;2.47;2.27;;;;;;;-1.66;71.12;96444.63;5039227;28;20209;-72
2022/03/05 02:39:47;;;;;;;1.90;1.50;;;;;;;-1.45;69.73;96437.22;5039323;28;20216;-72
2022/03/05 02:42:15;;;;;;;2.00;1.53;;;;;;;-1.57;69.27;96438.03;5039101;28;20236;-72
2022/03/05 02:44:41;;;;;;;3.73;1.57;;;;;;;-1.66;70.31;96434.28;5039048;28;20232;-72
2022/03/05 02:47:08;;;;;;;2.90;2.33;;;;;;;-1.69;71.77;96444.00;5039430;28;20212;-72
2022/03/05 02:49:34;;;;;;;2.03;1.83;;;;;;;-1.51;72.11;96440.22;5039144;28;20209;-72
2022/03/05 02:52:01;;;;;;;2.10;1.70;;;;;;;-1.56;72.51;96445.69;5038895;28;20234;-72
2022/03/05 02:54:28;;;;;;;7.83;2.13;;;;;;;-1.52;72.39;96436.00;5038489;28;20588;-72
2022/03/05 02:56:56;;;;;;;1.20;1.17;;;;;;;-1.27;71.75;96443.78;5038975;28;20212;-72
2022/03/05 02:59:25;;;;;;;2.73;2.23;;;;;;;-1.41;71.57;96438.69;5038888;28;20197;-72
2022/03/05 03:01:51;;;;;;;1.80;1.57;;;;;;;-1.49;71.30;96435.78;5038177;28;21086;-72
2022/03/05 03:04:18;;;;;;;3.07;1.80;;;;;;;-1.49;71.78;96435.78;5038161;28;20197;-72
2022/03/05 03:06:44;;;;;;;1.77;1.47;;;;;;;-1.60;71.84;96443.41;5039198;28;20240;-72
2022/03/05 03:09:11;;;;;;;1.50;1.40;;;;;;;-1.70;72.62;96442.34;5037910;28;20687;-72
2022/03/05 03:11:37;;;;;;;1.93;1.50;;;;;;;-1.66;72.11;96438.63;5038495;28;20224;-72
2022/03/05 03:14:05;;;;;;;4.53;2.30;;;;;;;-1.50;71.66;96434.97;5038111;28;20208;-72
2022/03/05 03:16:32;;;;;;;1.23;1.13;;;;;;;-1.72;71.26;96439.03;5038039;28;20201;-72
2022/03/05 03:18:58;;;;;;;3.00;2.70;;;;;;;-1.78;70.97;96439.44;5038114;28;20708;-72
2022/03/05 03:21:25;;;;;;;5.27;1.63;;;;;;;-1.76;71.03;96432.41;5037819;28;20197;-72
2022/03/05 03:23:51;;;;;;;1.30;1.20;;;;;;;-1.84;70.51;96439.81;5037828;28;20208;-72
2022/03/05 03:26:18;;;;;;;2.10;1.20;;;;;;;-1.72;71.75;96439.03;5034748;28;20733;-72
2022/03/05 03:28:44;;;;;;;4.57;2.30;;;;;;;-1.70;72.55;96432.84;5038619;28;20229;-72
2022/03/05 03:31:12;;;;;;;3.43;2.27;;;;;;;-1.49;73.43;96428.03;5037953;28;20246;-72
2022/03/05 03:33:39;;;;;;;2.93;2.23;;;;;;;-1.65;73.98;96430.78;5037447;28;20233;-72
2022/03/05 03:36:05;;;;;;;2.20;2.00;;;;;;;-1.72;74.04;96431.28;5038429;28;20212;-72
2022/03/05 03:38:32;;;;;;;13.70;3.40;;;;;;;-1.58;73.20;96428.63;5038166;28;20215;-72
2022/03/05 03:40:58;;;;;;;0.90;0.90;;;;;;;-1.66;72.49;96431.69;5038494;28;20205;-72
2022/03/05 03:43:25;;;;;;;1.83;1.70;;;;;;;-1.73;73.08;96432.22;5038394;28;20219;-72
2022/03/05 03:45:51;;;;;;;3.50;2.60;;;;;;;-1.73;73.41;96432.22;5038182;28;20230;-72
2022/03/05 03:48:19;;;;;;;4.07;2.73;;;;;;;-1.61;72.92;96434.81;5037763;28;20571;-72
2022/03/05 03:50:46;;;;;;;1.40;1.30;;;;;;;-1.83;73.80;96431.97;5037968;28;20228;-72
2022/03/05 03:53:12;;;;;;;1.70;1.47;;;;;;;-1.87;73.60;96436.59;5037271;28;20228;-72
2022/03/05 03:55:39;;;;;;;2.13;1.93;;;;;;;-1.80;73.47;96441.28;5037888;28;20208;-72
2022/03/05 03:58:05;;;;;;;2.23;1.60;;;;;;;-1.98;73.10;96442.44;5037642;28;20578;-72
2022/03/05 04:00:32;;;;;;;5.67;3.00;;;;;;;-1.93;73.44;96437.00;5037422;28;20208;-73
2022/03/05 04:02:58;;;;;;;1.43;1.33;;;;;;;-2.05;72.87;96445.50;5037148;28;20713;-72
2022/03/05 04:05:26;;;;;;;4.07;2.43;;;;;;;-2.24;74.41;96445.84;5037677;28;20197;-72
2022/03/05 04:10:38;;;;;;;0.93;0.93;;;;;;;-2.28;74.80;96446.97;5037287;28;20259;-72
2022/03/05 04:13:04;;;;;;;0.70;0.70;;;;;;;-2.37;77.25;96447.53;5036343;28;20775;-72
2022/03/05 04:15:31;;;;;;;2.10;1.90;;;;;;;-2.26;77.67;96452.03;5037387;28;20198;-72
2022/03/05 04:17:57;;;;;;;1.63;1.53;;;;;;;-2.21;78.08;96450.00;5036910;28;20215;-72
2022/03/05 04:20:25;;;;;;;5.40;1.83;;;;;;;-2.05;79.46;96450.66;5036647;28;20208;-72
2022/03/05 04:22:52;;;;;;;2.87;1.63;;;;;;;-2.08;79.96;96446.53;5037179;28;20243;-72
2022/03/05 04:25:18;;;;;;;3.13;2.93;;;;;;;-1.93;80.48;96449.91;5036447;28;20578;-72
2022/03/05 04:27:45;;;;;;;6.60;2.87;;;;;;;-2.05;81.38;96445.50;5036715;28;20204;-71
2022/03/05 04:30:12;;;;;;;1.67;0.93;;;;;;;-1.93;81.67;96445.56;5036955;28;20574;-72
2022/03/05 04:32:39;;;;;;;2.27;2.07;;;;;;;-1.90;81.44;96442.78;5036043;28;20232;-71
2022/03/05 04:35:06;;;;;;;3.10;2.43;;;;;;;-1.67;81.60;96427.50;5037008;28;20243;-72
2022/03/05 04:37:34;;;;;;;3.63;2.67;;;;;;;-1.60;81.30;96428.72;5037481;28;20243;-72
2022/03/05 04:40:02;;;;;;;9.30;2.03;;;;;;;-1.65;80.85;96437.72;5036795;28;20216;-72
2022/03/05 04:42:28;;;;;;;5.37;2.33;;;;;;;-1.54;79.46;96433.50;5036197;28;20220;-72
2022/03/05 04:44:54;;;;;;;3.03;2.73;;;;;;;-1.64;78.24;96439.38;5037268;28;20208;-73
2022/03/05 04:47:21;;;;;;;2.77;2.40;;;;;;;-1.73;76.98;96437.38;5037202;28;20201;-71
2022/03/05 04:49:48;;;;;;;3.37;2.13;;;;;;;-1.80;77.64;96436.09;5035986;28;20720;-72
2022/03/05 04:52:14;;;;;;;4.63;2.10;;;;;;;-1.86;77.91;96439.06;5035671;28;20232;-71
2022/03/05 04:54:42;;;;;;;2.20;1.77;;;;;;;-1.66;77.43;96433.47;5037145;28;20581;-71
2022/03/05 04:57:08;;;;;;;5.30;2.83;;;;;;;-1.86;76.86;96444.25;5036308;28;20660;-72
2022/03/05 04:59:35;;;;;;;4.70;2.30;;;;;;;-2.07;75.56;96450.78;5036404;28;20220;-72
2022/03/05 05:02:01;;;;;;;3.90;0.93;;;;;;;-2.10;74.51;96453.56;5037064;28;20223;-71
2022/03/05 05:04:29;;;;;;;11.10;2.90;;;;;;;-2.14;75.04;96457.25;5035723;28;20204;-71
2022/03/05 05:06:56;;;;;;;16.47;3.23;;;;;;;-2.10;76.44;96457.88;5036110;28;20216;-71
2022/03/05 05:09:23;;;;;;;4.20;1.83;;;;;;;-2.15;77.55;96450.44;5036543;28;20300;-71
2022/03/05 05:11:51;;;;;;;2.73;2.53;;;;;;;-2.06;77.24;96449.84;5036190;28;20228;-71
2022/03/05 05:14:17;;;;;;;2.40;1.97;;;;;;;-2.35;75.85;96463.72;5035533;28;20205;-72
2022/03/05 05:16:44;;;;;;;2.83;1.80;;;;;;;-2.28;79.27;96467.59;5037043;28;20205;-71
2022/03/05 05:19:27;;;;;;;12.60;2.70;;;;;;;-2.19;78.53;96458.44;5036097;28;20216;-71
2022/03/05 05:21:54;;;;;;;3.43;2.33;;;;;;;-2.10;78.27;96463.03;5035917;28;20224;-71
2022/03/05 05:24:21;;;;;;;2.67;2.30;;;;;;;-2.14;77.88;96461.56;5035941;28;20204;-71
2022/03/05 05:26:48;;;;;;;2.37;1.77;;;;;;;-2.22;78.16;96458.66;5036575;28;20211;-71
2022/03/05 05:29:16;;;;;;;2.87;2.27;;;;;;;-2.05;81.98;96454.09;5035987;28;20218;-71
2022/03/05 05:31:42;;;;;;;5.70;3.27;;;;;;;-2.09;81.90;96460.34;5035927;28;20236;-71
2022/03/05 05:34:09;;;;;;;2.93;1.90;;;;;;;-2.22;81.92;96459.47;5035502;28;20219;-71
2022/03/05 05:36:38;;;;;;;4.07;2.23;;;;;;;-2.34;83.52;96465.41;5035435;28;20208;-71
2022/03/05 05:39:05;;;;;;;5.33;2.70;;;;;;;-2.19;82.86;96456.72;5035602;28;20740;-71
2022/03/05 05:41:32;;;;;;;1.27;1.17;;;;;;;-2.12;82.70;96465.72;5040236;28;20204;-71
2022/03/05 05:43:58;;;;;;;5.03;1.57;;;;;;;-1.95;82.42;96457.75;5039631;28;20207;-71
2022/03/05 05:46:26;;;;;;;4.33;2.53;;;;;;;-1.77;82.98;96467.75;5040346;28;20698;-71
2022/03/05 05:48:53;;;;;;;2.60;2.40;;;;;;;-2.06;82.74;96464.50;5040185;28;20223;-71
2022/03/05 05:51:20;;;;;;;3.50;2.77;;;;;;;-1.93;82.42;96470.56;5039840;28;20228;-71
2022/03/05 05:53:46;;;;;;;2.20;1.83;;;;;;;-2.00;82.97;96475.25;5039230;28;20711;-71
2022/03/05 05:56:13;;;;;;;8.33;2.00;;;;;;;-1.79;81.86;96468.75;5040175;28;20200;-71
2022/03/05 05:58:39;;;;;;;3.03;1.47;;;;;;;-1.66;81.23;96479.97;5039451;28;20209;-71
2022/03/05 06:01:06;;;;;;;1.00;0.87;;;;;;;-1.55;80.60;96480.94;5039994;28;20205;-71
2022/03/05 06:03:34;;;;;;;2.53;2.10;;;;;;;-1.40;80.07;96474.78;5039242;28;20224;-72
2022/03/05 06:06:01;;;;;;;3.17;2.27;;;;;;;-1.47;80.00;96485.59;5039385;28;20207;-72
2022/03/05 06:08:28;;;;;;;7.70;3.13;;;;;;;-1.61;79.76;96490.84;5040162;28;20695;-71
2022/03/05 06:10:57;;;;;;;3.70;2.43;;;;;;;-1.57;78.49;96500.03;5040385;28;20204;-71
2022/03/05 06:13:24;;;;;;;5.40;3.50;;;;;;;-1.63;77.16;96505.59;5039279;28;20806;-71
2022/03/05 06:15:50;;;;;;;3.33;2.43;;;;;;;-1.78;78.13;96501.41;5039428;28;20400;-71
2022/03/05 06:18:17;;;;;;;5.53;2.30;;;;;;;-1.70;78.26;96502.56;5039304;28;20673;-71
2022/03/05 06:20:45;;;;;;;2.37;2.17;;;;;;;-1.56;79.01;96512.03;5040458;28;20243;-71
2022/03/05 06:23:11;;;;;;;0.83;0.83;;;;;;;-1.71;79.81;96507.84;5038441;28;20213;-71
2022/03/05 06:25:38;;;;;;;2.40;2.20;;;;;;;-1.77;81.18;96511.66;5039800;28;20219;-71
2022/03/05 06:28:05;;;;;;;9.23;2.93;;;;;;;-1.59;81.04;96512.22;5039646;28;20213;-71
2022/03/05 06:30:31;;;;;;;6.73;4.07;;;;;;;-1.80;82.11;96509.22;5039123;28;20213;-71
2022/03/05 06:32:58;;;;;;;2.90;2.60;;;;;;;-1.64;82.45;96512.53;5038462;28;20236;-71
2022/03/05 06:35:24;;;;;;;3.97;2.80;;;;;;;-1.67;82.57;96514.47;5039427;28;20201;-71
2022/03/05 06:37:52;;;;;;;1.27;1.20;;;;;;;-1.34;82.62;96507.16;5039042;28;20225;-71
2022/03/05 06:40:19;;;;;;;3.43;1.93;;;;;;;-1.38;82.27;96516.03;5039427;28;20659;-73
2022/03/05 06:42:45;;;;;;;3.97;2.53;;;;;;;-1.30;82.47;96506.00;5038721;28;20312;-73
2022/03/05 06:45:12;;;;;;;4.90;2.37;;;;;;;-1.24;82.46;96508.22;5038758;28;20589;-73
2022/03/05 06:47:39;;;;;;;3.53;2.90;;;;;;;-1.16;83.11;96506.75;5039910;28;20212;-73
2022/03/05 06:50:07;;;;;;;5.40;1.90;;;;;;;-1.09;83.39;96511.44;5039646;28;21090;-73
2022/03/05 06:52:33;;;;;;;2.20;1.90;;;;;;;-1.01;83.20;96516.91;5036794;28;20265;-73
2022/03/05 06:55:01;;;;;;;3.13;2.10;;;;;;;-0.82;82.82;96514.78;5039284;28;20222;-70
2022/03/05 06:57:28;;;;;;;3.50;2.43;;;;;;;-0.72;82.25;96508.06;5038441;28;20208;-70
2022/03/05 06:59:54;;;;;;;3.73;2.93;;;;;;;-0.67;82.46;96511.19;5038563;28;20590;-70
2022/03/05 07:02:21;;;;;;;5.03;2.67;;;;;;;-0.55;82.24;96512.94;5038601;28;20220;-70
2022/03/05 07:04:48;;;;;;;6.60;2.47;;;;;;;-0.62;82.82;96511.69;5038945;28;20205;-70
2022/03/05 07:07:14;;;;;;;2.63;2.03;;;;;;;-0.68;83.22;96517.28;5038553;28;20224;-73
2022/03/05 07:09:41;;;;;;;4.10;2.57;;;;;;;-0.57;83.80;96513.03;5039241;28;20205;-73
2022/03/05 07:12:10;;;;;;;5.33;3.50;;;;;;;-0.24;83.76;96513.31;5039112;28;20233;-73
2022/03/05 07:14:37;;;;;;;5.23;2.67;;;;;;;-0.37;83.65;96515.09;5037669;28;20301;-73
2022/03/05 07:17:04;;;;;;;4.77;3.10;;;;;;;-0.01;82.20;96515.97;5037716;28;20212;-73
2022/03/05 07:19:30;;;;;;;29.10;2.37;;;;;;;-0.05;81.82;96515.47;5038916;28;20583;-70
2022/03/05 07:21:57;;;;;;;2.00;1.80;;;;;;;-0.16;83.12;96512.81;5037670;28;20245;-70
2022/03/05 07:24:23;;;;;;;4.03;3.40;;;;;;;0.13;82.38;96515.84;5037249;28;20205;-70
2022/03/05 07:26:50;;;;;;;8.70;3.70;;;;;;;-0.02;81.92;96511.72;5037484;28;20212;-70
2022/03/05 07:29:18;;;;;;;4.43;2.23;;;;;;;0.26;82.51;96518.41;5038719;28;20885;-73
2022/03/05 07:31:45;;;;;;;2.67;2.13;;;;;;;0.20;81.73;96517.03;5037869;28;20228;-73
2022/03/05 07:34:11;;;;;;;3.90;1.77;;;;;;;0.21;82.12;96518.72;5037207;28;20237;-73
2022/03/05 07:36:38;;;;;;;4.70;2.17;;;;;;;0.46;82.31;96512.59;5038353;28;20306;-73
2022/03/05 07:39:07;;;;;;;5.87;2.63;;;;;;;0.27;81.72;96515.69;5037509;28;20811;-73
2022/03/05 07:41:34;;;;;;;2.50;1.97;;;;;;;0.24;82.78;96521.09;5037789;28;20205;-73
2022/03/05 07:44:00;;;;;;;8.90;4.80;;;;;;;0.20;82.41;96511.84;5036953;28;20233;-71
2022/03/05 07:46:28;;;;;;;5.43;2.60;;;;;;;0.66;82.25;96516.25;5036944;28;20201;-70
2022/03/05 07:48:54;;;;;;;4.13;2.57;;;;;;;0.56;81.74;96522.22;5037020;28;20209;-73
2022/03/05 07:51:21;;;;;;;1.27;1.20;;;;;;;0.51;81.92;96524.31;5037861;28;20792;-73
2022/03/05 07:53:48;;;;;;;9.27;3.13;;;;;;;0.73;80.93;96532.19;5037334;28;20221;-70
2022/03/05 07:56:14;;;;;;;3.07;2.53;;;;;;;0.96;80.23;96529.59;5037554;28;20205;-72
2022/03/05 07:58:41;;;;;;;15.13;4.90;;;;;;;1.13;78.94;96525.75;5037659;28;20205;-73
2022/03/05 08:01:07;;;;;;;8.03;2.33;;;;;;;1.03;79.95;96528.22;5037146;28;20205;-70
2022/03/05 08:03:35;;;;;;;23.07;3.40;;;;;;;1.36;78.33;96523.94;5036726;28;20232;-73
2022/03/05 08:06:01;;;;;;;4.23;3.33;;;;;;;1.30;78.43;96526.97;5037354;28;20297;-72
2022/03/05 08:08:28;;;;;;;6.63;3.67;;;;;;;1.55;78.13;96528.56;5037501;28;20205;-72
2022/03/05 08:10:55;;;;;;;7.57;4.33;;;;;;;1.43;77.68;96525.13;5037360;28;20225;-73
2022/03/05 08:13:22;;;;;;;6.47;3.40;;;;;;;1.56;78.39;96525.03;5036618;28;20802;-72
2022/03/05 08:15:49;;;;;;;8.13;4.20;;;;;;;1.62;78.06;96528.00;5037380;28;20201;-73
2022/03/05 08:18:15;;;;;;;9.73;3.33;;;;;;;1.73;78.39;96529.75;5037157;28;20217;-73
2022/03/05 08:20:43;;;;;;;9.87;4.00;;;;;;;1.83;78.36;96527.19;5037175;28;20288;-73
2022/03/05 08:23:10;;;;;;;10.27;4.90;;;;;;;1.73;77.18;96524.56;5036151;28;20251;-73
2022/03/05 08:25:36;;;;;;;6.23;3.03;;;;;;;1.90;76.90;96524.94;5037305;28;20211;-73
2022/03/05 08:28:03;;;;;;;6.27;3.47;;;;;;;2.11;76.05;96520.66;5037081;28;20208;-73
2022/03/05 08:30:29;;;;;;;5.57;2.90;;;;;;;2.22;74.93;96523.28;5035549;28;20220;-73
2022/03/05 08:32:56;;;;;;;7.23;2.47;;;;;;;2.11;74.88;96523.28;5036108;28;20706;-73
2022/03/05 08:35:22;;;;;;;11.73;5.30;;;;;;;2.37;74.37;96520.28;5036237;28;20600;-73
2022/03/05 08:37:50;;;;;;;8.33;3.60;;;;;;;2.89;74.58;96516.00;5036219;28;20201;-73
2022/03/05 08:40:17;;;;;;;8.57;2.63;;;;;;;2.90;73.61;96524.63;5036693;28;20743;-73
2022/03/05 08:42:45;;;;;;;7.53;3.30;;;;;;;2.81;73.31;96510.56;5035579;28;20227;-73
2022/03/05 08:45:12;;;;;;;10.17;4.43;;;;;;;3.02;72.44;96514.06;5036440;28;20201;-73
2022/03/05 08:47:39;;;;;;;6.97;4.10;;;;;;;2.68;73.27;96524.72;5036269;28;20209;-73
2022/03/05 08:50:07;;;;;;;8.53;3.23;;;;;;;3.11;72.42;96516.72;5036185;28;20207;-73
2022/03/05 08:52:36;;;;;;;5.70;3.87;;;;;;;3.02;72.83;96504.47;5035862;28;20259;-73
2022/03/05 08:55:05;;;;;;;9.80;4.17;;;;;;;3.20;71.53;96499.53;5036743;28;20212;-73
2022/03/05 08:57:32;;;;;;;11.90;4.73;;;;;;;3.10;73.20;96511.66;5035841;28;20208;-73
2022/03/05 08:59:58;;;;;;;4.20;2.83;;;;;;;3.32;71.70;96503.72;5036163;28;20209;-73
2022/03/05 09:02:25;;;;;;;6.93;3.93;;;;;;;3.16;70.63;96503.34;5035570;28;20269;-73
2022/03/05 09:04:51;;;;;;;6.13;3.00;;;;;;;3.47;71.00;96505.06;5035799;28;20208;-71
2022/03/05 09:07:18;;;;;;;5.17;3.60;;;;;;;3.26;71.31;96499.00;5035623;28;20569;-71
2022/03/05 09:09:44;;;;;;;12.60;4.27;;;;;;;3.58;68.74;96494.56;5035426;28;20320;-71
2022/03/05 09:12:12;;;;;;;14.87;3.77;;;;;;;3.85;69.47;96487.84;5035581;28;20221;-73
2022/03/05 09:14:39;;;;;;;10.30;5.37;;;;;;;3.97;70.42;96494.63;5036319;28;20219;-73
2022/03/05 09:17:05;;;;;;;10.23;4.00;;;;;;;4.10;69.55;96495.22;5036385;28;20586;-73
2022/03/05 09:19:32;;;;;;;11.60;4.30;;;;;;;4.24;66.29;96493.09;5035862;28;20642;-73
2022/03/05 09:21:58;;;;;;;12.13;4.60;;;;;;;3.99;69.02;96488.31;5035611;28;20246;-71
2022/03/05 09:24:25;;;;;;;7.73;3.57;;;;;;;4.11;67.45;96489.06;5035951;28;20224;-71
2022/03/05 09:26:51;;;;;;;8.13;3.27;;;;;;;4.45;67.21;96486.00;5035899;28;20209;-71
2022/03/05 09:29:19;;;;;;;18.83;4.70;;;;;;;4.57;66.40;96479.69;5035926;28;20209;-73
2022/03/05 09:31:46;;;;;;;7.03;3.93;;;;;;;4.26;67.21;96488.56;5035918;28;20320;-73
2022/03/05 09:34:12;;;;;;;6.27;3.67;;;;;;;4.19;65.21;96494.44;5034885;28;20231;-73
2022/03/05 09:36:39;;;;;;;14.23;4.40;;;;;;;4.10;65.66;96485.63;5035582;28;20209;-73
2022/03/05 09:39:05;;;;;;;8.83;3.17;;;;;;;4.24;65.27;96483.47;5035608;28;20209;-73
2022/03/05 09:41:32;;;;;;;12.30;3.93;;;;;;;4.35;65.64;96490.34;5036289;28;20224;-73
2022/03/05 09:43:59;;;;;;;15.50;3.83;;;;;;;4.59;64.47;96483.81;5035147;28;20231;-73
2022/03/05 09:46:27;;;;;;;9.57;4.40;;;;;;;4.75;63.29;96480.69;5036174;28;20201;-73
2022/03/05 09:48:54;;;;;;;6.33;3.13;;;;;;;4.64;63.90;96480.81;5035987;28;20219;-73
2022/03/05 09:51:22;;;;;;;7.80;2.90;;;;;;;4.86;62.84;96490.06;5035741;28;20670;-73
2022/03/05 09:53:53;;;;;;;12.50;3.93;;;;;;;5.20;62.20;96482.63;5035069;28;20315;-73
2022/03/05 09:56:19;;;;;;;10.33;3.30;;;;;;;5.33;58.88;96475.31;5036052;28;20934;-73
2022/03/05 09:58:46;;;;;;;7.00;3.03;;;;;;;4.75;60.81;96483.28;5036687;28;20209;-74
2022/03/05 10:01:12;;;;;;;10.20;3.50;;;;;;;5.05;60.35;96492.69;5035577;28;20212;-73
2022/03/05 10:03:47;;;;;;;6.57;3.67;;;;;;;5.40;60.26;96481.63;5035148;28;20228;-74
2022/03/05 10:06:18;;;;;;;7.67;3.43;;;;;;;5.48;59.24;96477.34;5035709;28;20199;-73
2022/03/05 10:08:45;;;;;;;9.13;2.30;;;;;;;4.86;58.37;96479.63;5035137;28;20209;-74
2022/03/05 10:11:12;;;;;;;5.80;2.63;;;;;;;5.49;55.41;96479.00;5035155;28;20295;-74
2022/03/05 10:13:42;;;;;;;9.90;2.93;;;;;;;5.68;57.37;96481.59;5034120;28;20271;-73
2022/03/05 10:16:24;;;;;;;6.37;3.33;;;;;;;5.71;57.14;96476.06;5035020;28;20316;-73
2022/03/05 10:18:52;;;;;;;4.83;1.97;;;;;;;5.64;56.47;96475.81;5035594;28;20217;-74
2022/03/05 10:21:19;;;;;;;9.13;3.70;;;;;;;5.57;55.70;96479.13;5035206;28;20201;-71
2022/03/05 10:23:48;;;;;;;6.37;2.77;;;;;;;5.43;54.85;96472.56;5034235;28;21037;-71
2022/03/05 10:26:17;;;;;;;4.17;2.47;;;;;;;5.92;54.81;96481.94;5034732;28;21243;-71
2022/03/05 10:28:43;;;;;;;8.00;3.47;;;;;;;6.25;53.66;96475.22;5038853;28;20669;-71
2022/03/05 10:31:12;;;;;;;3.53;2.47;;;;;;;6.08;54.16;96478.59;5038677;28;20613;-71
2022/03/05 10:33:41;;;;;;;8.10;3.40;;;;;;;6.26;54.25;96479.47;5037579;28;20256;-71
2022/03/05 10:36:10;;;;;;;7.30;3.03;;;;;;;6.77;49.16;96474.47;5038664;28;20235;-71
2022/03/05 10:38:44;;;;;;;5.93;2.57;;;;;;;6.61;49.46;96461.22;5038782;28;20216;-71
2022/03/05 10:41:13;;;;;;;7.73;3.87;;;;;;;5.96;51.92;96470.22;5038133;28;20205;-71
2022/03/05 10:43:40;;;;;;;8.53;3.17;;;;;;;5.44;52.04;96474.19;5037954;28;20229;-72
2022/03/05 10:46:06;;;;;;;3.50;1.57;;;;;;;5.68;52.36;96471.13;5038582;28;20201;-71
2022/03/05 10:48:34;;;;;;;6.70;2.27;;;;;;;6.16;48.12;96470.00;5038208;28;20677;-73
2022/03/05 10:51:02;;;;;;;6.53;3.47;;;;;;;6.59;49.04;96465.78;5038286;28;20212;-73
2022/03/05 10:53:39;;;;;;;7.90;3.17;;;;;;;6.91;46.88;96463.50;5038463;28;20263;-73
2022/03/05 10:56:27;;;;;;;4.03;2.47;;;;;;;7.28;44.47;96454.50;5040496;28;20212;-73
2022/03/05 10:59:09;;;;;;;3.60;1.57;;;;;;;7.53;44.95;96454.50;5038918;28;20242;-73
2022/03/05 11:01:38;;;;;;;6.63;2.77;;;;;;;7.36;44.42;96463.25;5038774;28;20228;-73
2022/03/05 11:04:05;;;;;;;7.80;2.30;;;;;;;6.77;45.17;96464.00;5038766;28;20323;-74
2022/03/05 11:06:35;;;;;;;5.80;2.37;;;;;;;7.13;47.55;96465.66;5039018;28;20201;-74
2022/03/05 11:09:03;;;;;;;5.73;2.07;;;;;;;7.44;45.88;96455.44;5039014;28;20716;-73
2022/03/05 11:11:31;;;;;;;3.23;1.77;;;;;;;7.72;47.93;96453.50;5038411;28;20233;-73
2022/03/05 11:13:58;;;;;;;11.97;3.17;;;;;;;7.99;44.37;96456.78;5037629;28;20339;-72
2022/03/05 11:16:26;;;;;;;4.67;2.97;;;;;;;7.88;42.19;96460.50;5038792;28;20200;-71
2022/03/05 11:18:53;;;;;;;7.03;2.57;;;;;;;6.97;44.15;96460.28;5038760;28;20237;-71
2022/03/05 11:21:19;;;;;;;7.03;2.57;;;;;;;6.78;44.05;96465.66;5038497;28;20201;-71
2022/03/05 11:23:46;;;;;;;3.43;2.33;;;;;;;6.53;46.74;96460.31;5037609;28;20225;-72
2022/03/05 11:26:16;;;;;;;9.03;4.27;;;;;;;7.05;47.50;96453.31;5038841;28;20205;-71
2022/03/05 11:28:48;;;;;;;4.47;1.60;;;;;;;7.16;46.37;96460.13;5038026;28;20214;-71
2022/03/05 11:31:17;;;;;;;10.77;3.13;;;;;;;6.54;46.36;96461.97;5038100;28;20209;-73
2022/03/05 11:33:45;;;;;;;6.90;2.50;;;;;;;6.37;46.93;96455.72;5038066;28;20229;-74
2022/03/05 11:36:29;;;;;;;5.90;2.23;;;;;;;6.84;46.69;96451.97;5038588;28;20273;-73
2022/03/05 11:39:14;;;;;;;10.37;2.47;;;;;;;7.03;45.96;96449.22;5037897;28;20205;-73